sensor_id;sensor_type;location;lat;lon;timestamp;P1;durP1;ratioP1;P2;durP2;ratioP2
61764;SDS011;50188;48.114;-1.388;2022-08-20T00:00:04;11.02;;;2.63;;
61764;SDS011;50188;48.114;-1.388;2022-08-20T00:02:44;7.57;;;3.17;;
61764;SDS011;50188;48.114;-1.388;2022-08-20T00:05:12;11.77;;;3.85;;
61764;SDS011;50188;48.114;-1.388;2022-08-20T00:07:40;10.52;;;4.22;;
61764;SDS011;50188;48.114;-1.388;2022-08-20T00:10:06;11.23;;;3.30;;
61764;SDS011;50188;48.114;-1.388;2022-08-20T00:12:34;13.70;;;4.13;;
61764;SDS011;50188;48.114;-1.388;2022-08-20T00:15:00;9.15;;;3.47;;
61764;SDS011;50188;48.114;-1.388;2022-08-20T00:17:28;12.27;;;3.80;;
61764;SDS011;50188;48.114;-1.388;2022-08-20T00:20:01;9.00;;;3.50;;
61764;SDS011;50188;48.114;-1.388;2022-08-20T00:22:33;8.98;;;3.40;;
61764;SDS011;50188;48.114;-1.388;2022-08-20T00:24:59;10.95;;;3.58;;
61764;SDS011;50188;48.114;-1.388;2022-08-20T00:27:25;11.18;;;2.95;;
61764;SDS011;50188;48.114;-1.388;2022-08-20T00:29:51;7.38;;;3.00;;
61764;SDS011;50188;48.114;-1.388;2022-08-20T00:32:16;6.35;;;2.92;;
61764;SDS011;50188;48.114;-1.388;2022-08-20T00:34:42;17.25;;;3.88;;
61764;SDS011;50188;48.114;-1.388;2022-08-20T00:37:08;14.85;;;4.00;;
61764;SDS011;50188;48.114;-1.388;2022-08-20T00:39:34;8.00;;;3.20;;
61764;SDS011;50188;48.114;-1.388;2022-08-20T00:42:00;10.30;;;3.05;;
61764;SDS011;50188;48.114;-1.388;2022-08-20T00:44:26;10.10;;;4.30;;
61764;SDS011;50188;48.114;-1.388;2022-08-20T00:46:52;11.98;;;3.05;;
61764;SDS011;50188;48.114;-1.388;2022-08-20T00:49:20;10.07;;;3.17;;
61764;SDS011;50188;48.114;-1.388;2022-08-20T00:51:50;15.73;;;3.67;;
61764;SDS011;50188;48.114;-1.388;2022-08-20T00:54:37;11.63;;;3.42;;
61764;SDS011;50188;48.114;-1.388;2022-08-20T00:57:10;14.57;;;4.57;;
61764;SDS011;50188;48.114;-1.388;2022-08-20T00:59:45;14.63;;;3.90;;
61764;SDS011;50188;48.114;-1.388;2022-08-20T01:02:14;12.98;;;5.20;;
61764;SDS011;50188;48.114;-1.388;2022-08-20T01:04:42;9.95;;;4.40;;
61764;SDS011;50188;48.114;-1.388;2022-08-20T01:07:15;10.35;;;3.10;;
61764;SDS011;50188;48.114;-1.388;2022-08-20T01:09:44;7.47;;;2.42;;
61764;SDS011;50188;48.114;-1.388;2022-08-20T01:12:10;14.55;;;3.63;;
61764;SDS011;50188;48.114;-1.388;2022-08-20T01:14:38;13.55;;;4.10;;
61764;SDS011;50188;48.114;-1.388;2022-08-20T01:17:13;9.93;;;2.95;;
61764;SDS011;50188;48.114;-1.388;2022-08-20T01:19:53;9.27;;;2.83;;
61764;SDS011;50188;48.114;-1.388;2022-08-20T01:22:34;9.10;;;2.90;;
61764;SDS011;50188;48.114;-1.388;2022-08-20T01:25:36;7.45;;;3.88;;
61764;SDS011;50188;48.114;-1.388;2022-08-20T01:28:10;7.93;;;2.45;;
61764;SDS011;50188;48.114;-1.388;2022-08-20T01:30:36;14.90;;;3.85;;
61764;SDS011;50188;48.114;-1.388;2022-08-20T01:33:03;10.38;;;3.67;;
61764;SDS011;50188;48.114;-1.388;2022-08-20T01:35:30;8.73;;;3.92;;
61764;SDS011;50188;48.114;-1.388;2022-08-20T01:38:00;17.33;;;4.13;;
61764;SDS011;50188;48.114;-1.388;2022-08-20T01:40:31;16.20;;;3.00;;
61764;SDS011;50188;48.114;-1.388;2022-08-20T01:43:12;9.90;;;2.55;;
61764;SDS011;50188;48.114;-1.388;2022-08-20T01:45:38;9.68;;;3.42;;
61764;SDS011;50188;48.114;-1.388;2022-08-20T01:48:04;8.02;;;2.50;;
61764;SDS011;50188;48.114;-1.388;2022-08-20T01:50:30;7.93;;;2.45;;
61764;SDS011;50188;48.114;-1.388;2022-08-20T01:53:03;7.38;;;3.42;;
61764;SDS011;50188;48.114;-1.388;2022-08-20T01:55:36;15.68;;;3.67;;
61764;SDS011;50188;48.114;-1.388;2022-08-20T01:58:02;4.80;;;2.65;;
61764;SDS011;50188;48.114;-1.388;2022-08-20T02:00:28;6.93;;;2.28;;
61764;SDS011;50188;48.114;-1.388;2022-08-20T02:02:54;6.55;;;2.30;;
61764;SDS011;50188;48.114;-1.388;2022-08-20T02:05:20;7.15;;;3.05;;
61764;SDS011;50188;48.114;-1.388;2022-08-20T02:07:45;11.63;;;3.28;;
61764;SDS011;50188;48.114;-1.388;2022-08-20T02:10:13;8.63;;;3.55;;
61764;SDS011;50188;48.114;-1.388;2022-08-20T02:12:40;7.57;;;2.65;;
61764;SDS011;50188;48.114;-1.388;2022-08-20T02:15:07;13.90;;;3.25;;
61764;SDS011;50188;48.114;-1.388;2022-08-20T02:17:34;7.60;;;3.42;;
61764;SDS011;50188;48.114;-1.388;2022-08-20T02:20:03;6.78;;;3.20;;
61764;SDS011;50188;48.114;-1.388;2022-08-20T02:22:41;11.82;;;3.38;;
61764;SDS011;50188;48.114;-1.388;2022-08-20T02:25:11;7.47;;;2.88;;
61764;SDS011;50188;48.114;-1.388;2022-08-20T02:27:39;8.00;;;3.03;;
61764;SDS011;50188;48.114;-1.388;2022-08-20T02:30:09;6.10;;;2.13;;
61764;SDS011;50188;48.114;-1.388;2022-08-20T02:32:39;9.07;;;2.53;;
61764;SDS011;50188;48.114;-1.388;2022-08-20T02:35:06;6.25;;;2.92;;
61764;SDS011;50188;48.114;-1.388;2022-08-20T02:37:33;13.43;;;4.68;;
61764;SDS011;50188;48.114;-1.388;2022-08-20T02:40:00;4.57;;;2.05;;
61764;SDS011;50188;48.114;-1.388;2022-08-20T02:42:26;9.35;;;2.38;;
61764;SDS011;50188;48.114;-1.388;2022-08-20T02:44:52;1.50;;;1.10;;
61764;SDS011;50188;48.114;-1.388;2022-08-20T02:47:19;8.90;;;2.88;;
61764;SDS011;50188;48.114;-1.388;2022-08-20T02:49:44;6.30;;;3.20;;
61764;SDS011;50188;48.114;-1.388;2022-08-20T02:52:10;6.20;;;2.88;;
61764;SDS011;50188;48.114;-1.388;2022-08-20T02:54:35;5.25;;;2.58;;
61764;SDS011;50188;48.114;-1.388;2022-08-20T02:57:02;8.70;;;2.28;;
61764;SDS011;50188;48.114;-1.388;2022-08-20T02:59:28;5.65;;;2.85;;
61764;SDS011;50188;48.114;-1.388;2022-08-20T03:01:53;3.10;;;1.42;;
61764;SDS011;50188;48.114;-1.388;2022-08-20T03:04:19;5.45;;;2.58;;
61764;SDS011;50188;48.114;-1.388;2022-08-20T03:06:45;5.07;;;2.20;;
61764;SDS011;50188;48.114;-1.388;2022-08-20T03:09:11;3.20;;;2.00;;
61764;SDS011;50188;48.114;-1.388;2022-08-20T03:11:36;5.10;;;2.92;;
61764;SDS011;50188;48.114;-1.388;2022-08-20T03:14:04;8.85;;;2.38;;
61764;SDS011;50188;48.114;-1.388;2022-08-20T03:16:30;4.03;;;2.05;;
61764;SDS011;50188;48.114;-1.388;2022-08-20T03:18:56;4.03;;;1.63;;
61764;SDS011;50188;48.114;-1.388;2022-08-20T03:21:22;3.45;;;1.95;;
61764;SDS011;50188;48.114;-1.388;2022-08-20T03:23:48;5.20;;;1.88;;
61764;SDS011;50188;48.114;-1.388;2022-08-20T03:26:14;5.38;;;2.65;;
61764;SDS011;50188;48.114;-1.388;2022-08-20T03:28:40;8.43;;;2.40;;
61764;SDS011;50188;48.114;-1.388;2022-08-20T03:31:07;3.28;;;1.88;;
61764;SDS011;50188;48.114;-1.388;2022-08-20T03:33:33;4.47;;;3.00;;
61764;SDS011;50188;48.114;-1.388;2022-08-20T03:35:59;5.65;;;2.40;;
61764;SDS011;50188;48.114;-1.388;2022-08-20T03:38:25;5.15;;;2.50;;
61764;SDS011;50188;48.114;-1.388;2022-08-20T03:40:51;6.63;;;2.25;;
61764;SDS011;50188;48.114;-1.388;2022-08-20T03:43:17;6.13;;;2.65;;
61764;SDS011;50188;48.114;-1.388;2022-08-20T03:45:44;8.30;;;3.20;;
61764;SDS011;50188;48.114;-1.388;2022-08-20T03:48:12;7.85;;;3.75;;
61764;SDS011;50188;48.114;-1.388;2022-08-20T03:50:41;8.25;;;2.97;;
61764;SDS011;50188;48.114;-1.388;2022-08-20T03:53:09;5.63;;;3.17;;
61764;SDS011;50188;48.114;-1.388;2022-08-20T03:55:36;9.27;;;3.97;;
61764;SDS011;50188;48.114;-1.388;2022-08-20T03:58:03;3.88;;;1.98;;
61764;SDS011;50188;48.114;-1.388;2022-08-20T04:00:41;8.75;;;3.15;;
61764;SDS011;50188;48.114;-1.388;2022-08-20T04:03:09;6.10;;;3.53;;
61764;SDS011;50188;48.114;-1.388;2022-08-20T04:05:36;6.47;;;3.28;;
61764;SDS011;50188;48.114;-1.388;2022-08-20T04:08:05;9.35;;;3.90;;
61764;SDS011;50188;48.114;-1.388;2022-08-20T04:10:33;14.45;;;4.22;;
61764;SDS011;50188;48.114;-1.388;2022-08-20T04:12:59;11.15;;;3.53;;
61764;SDS011;50188;48.114;-1.388;2022-08-20T04:15:24;14.48;;;5.35;;
61764;SDS011;50188;48.114;-1.388;2022-08-20T04:17:50;18.63;;;5.30;;
61764;SDS011;50188;48.114;-1.388;2022-08-20T04:20:19;12.02;;;4.20;;
61764;SDS011;50188;48.114;-1.388;2022-08-20T04:22:48;7.15;;;4.18;;
61764;SDS011;50188;48.114;-1.388;2022-08-20T04:25:15;10.27;;;5.53;;
61764;SDS011;50188;48.114;-1.388;2022-08-20T04:27:41;9.48;;;5.07;;
61764;SDS011;50188;48.114;-1.388;2022-08-20T04:30:07;7.15;;;4.72;;
61764;SDS011;50188;48.114;-1.388;2022-08-20T04:32:35;6.72;;;4.43;;
61764;SDS011;50188;48.114;-1.388;2022-08-20T04:35:06;8.02;;;4.07;;
61764;SDS011;50188;48.114;-1.388;2022-08-20T04:37:35;9.40;;;4.90;;
61764;SDS011;50188;48.114;-1.388;2022-08-20T04:40:05;6.15;;;3.65;;
61764;SDS011;50188;48.114;-1.388;2022-08-20T04:42:52;9.10;;;4.15;;
61764;SDS011;50188;48.114;-1.388;2022-08-20T04:45:18;4.10;;;3.15;;
61764;SDS011;50188;48.114;-1.388;2022-08-20T04:47:44;6.03;;;3.42;;
61764;SDS011;50188;48.114;-1.388;2022-08-20T04:50:11;5.93;;;3.33;;
61764;SDS011;50188;48.114;-1.388;2022-08-20T04:52:38;3.75;;;2.58;;
61764;SDS011;50188;48.114;-1.388;2022-08-20T04:55:04;5.80;;;3.03;;
61764;SDS011;50188;48.114;-1.388;2022-08-20T04:57:31;9.23;;;3.25;;
61764;SDS011;50188;48.114;-1.388;2022-08-20T04:59:58;4.65;;;3.50;;
61764;SDS011;50188;48.114;-1.388;2022-08-20T05:02:24;17.17;;;4.45;;
61764;SDS011;50188;48.114;-1.388;2022-08-20T05:04:50;8.85;;;3.15;;
61764;SDS011;50188;48.114;-1.388;2022-08-20T05:07:16;12.20;;;3.47;;
61764;SDS011;50188;48.114;-1.388;2022-08-20T05:09:45;7.25;;;2.33;;
61764;SDS011;50188;48.114;-1.388;2022-08-20T05:12:11;4.38;;;2.85;;
61764;SDS011;50188;48.114;-1.388;2022-08-20T05:14:39;5.90;;;3.33;;
61764;SDS011;50188;48.114;-1.388;2022-08-20T05:17:06;8.63;;;3.17;;
61764;SDS011;50188;48.114;-1.388;2022-08-20T05:19:33;8.88;;;3.63;;
61764;SDS011;50188;48.114;-1.388;2022-08-20T05:22:02;8.13;;;2.97;;
61764;SDS011;50188;48.114;-1.388;2022-08-20T05:24:28;10.43;;;2.67;;
61764;SDS011;50188;48.114;-1.388;2022-08-20T05:26:54;8.48;;;3.58;;
61764;SDS011;50188;48.114;-1.388;2022-08-20T05:29:20;10.07;;;3.90;;
61764;SDS011;50188;48.114;-1.388;2022-08-20T05:31:48;9.68;;;3.40;;
61764;SDS011;50188;48.114;-1.388;2022-08-20T05:34:14;7.13;;;3.75;;
61764;SDS011;50188;48.114;-1.388;2022-08-20T05:36:41;10.55;;;4.03;;
61764;SDS011;50188;48.114;-1.388;2022-08-20T05:39:08;10.77;;;4.28;;
61764;SDS011;50188;48.114;-1.388;2022-08-20T05:41:35;7.65;;;4.47;;
61764;SDS011;50188;48.114;-1.388;2022-08-20T05:44:02;6.78;;;3.90;;
61764;SDS011;50188;48.114;-1.388;2022-08-20T05:46:31;12.88;;;5.63;;
61764;SDS011;50188;48.114;-1.388;2022-08-20T05:48:57;16.45;;;5.78;;
61764;SDS011;50188;48.114;-1.388;2022-08-20T05:51:23;9.93;;;5.00;;
61764;SDS011;50188;48.114;-1.388;2022-08-20T05:53:49;12.70;;;4.45;;
61764;SDS011;50188;48.114;-1.388;2022-08-20T05:56:14;9.93;;;4.32;;
61764;SDS011;50188;48.114;-1.388;2022-08-20T05:58:40;6.63;;;3.42;;
61764;SDS011;50188;48.114;-1.388;2022-08-20T06:01:05;8.60;;;4.50;;
61764;SDS011;50188;48.114;-1.388;2022-08-20T06:03:31;3.78;;;3.20;;
61764;SDS011;50188;48.114;-1.388;2022-08-20T06:06:16;12.55;;;4.60;;
61764;SDS011;50188;48.114;-1.388;2022-08-20T06:08:42;7.00;;;3.70;;
61764;SDS011;50188;48.114;-1.388;2022-08-20T06:11:07;6.20;;;4.32;;
61764;SDS011;50188;48.114;-1.388;2022-08-20T06:13:33;6.47;;;2.83;;
61764;SDS011;50188;48.114;-1.388;2022-08-20T06:15:59;6.15;;;3.92;;
61764;SDS011;50188;48.114;-1.388;2022-08-20T06:18:25;9.32;;;5.47;;
61764;SDS011;50188;48.114;-1.388;2022-08-20T06:20:51;10.38;;;4.78;;
61764;SDS011;50188;48.114;-1.388;2022-08-20T06:23:17;5.47;;;3.97;;
61764;SDS011;50188;48.114;-1.388;2022-08-20T06:25:43;7.05;;;4.45;;
61764;SDS011;50188;48.114;-1.388;2022-08-20T06:28:10;4.70;;;3.35;;
61764;SDS011;50188;48.114;-1.388;2022-08-20T06:30:37;10.43;;;3.85;;
61764;SDS011;50188;48.114;-1.388;2022-08-20T06:33:04;8.80;;;3.20;;
61764;SDS011;50188;48.114;-1.388;2022-08-20T06:35:30;6.70;;;3.85;;
61764;SDS011;50188;48.114;-1.388;2022-08-20T06:37:58;7.78;;;3.72;;
61764;SDS011;50188;48.114;-1.388;2022-08-20T06:40:25;8.30;;;3.72;;
61764;SDS011;50188;48.114;-1.388;2022-08-20T06:42:53;8.93;;;4.45;;
61764;SDS011;50188;48.114;-1.388;2022-08-20T06:45:24;8.57;;;3.78;;
61764;SDS011;50188;48.114;-1.388;2022-08-20T06:47:52;4.30;;;3.15;;
61764;SDS011;50188;48.114;-1.388;2022-08-20T06:50:29;9.80;;;4.80;;
61764;SDS011;50188;48.114;-1.388;2022-08-20T06:52:59;10.90;;;3.70;;
61764;SDS011;50188;48.114;-1.388;2022-08-20T06:55:25;11.63;;;4.30;;
61764;SDS011;50188;48.114;-1.388;2022-08-20T06:57:55;15.75;;;3.47;;
61764;SDS011;50188;48.114;-1.388;2022-08-20T07:00:23;6.00;;;2.85;;
61764;SDS011;50188;48.114;-1.388;2022-08-20T07:02:49;12.88;;;3.35;;
61764;SDS011;50188;48.114;-1.388;2022-08-20T07:05:14;6.68;;;2.97;;
61764;SDS011;50188;48.114;-1.388;2022-08-20T07:07:43;5.30;;;2.88;;
61764;SDS011;50188;48.114;-1.388;2022-08-20T07:10:11;17.58;;;4.32;;
61764;SDS011;50188;48.114;-1.388;2022-08-20T07:12:38;9.23;;;4.15;;
61764;SDS011;50188;48.114;-1.388;2022-08-20T07:15:05;9.77;;;3.65;;
61764;SDS011;50188;48.114;-1.388;2022-08-20T07:17:32;8.98;;;3.75;;
61764;SDS011;50188;48.114;-1.388;2022-08-20T07:20:02;9.77;;;3.53;;
61764;SDS011;50188;48.114;-1.388;2022-08-20T07:22:32;8.57;;;3.33;;
61764;SDS011;50188;48.114;-1.388;2022-08-20T07:25:02;11.63;;;4.68;;
61764;SDS011;50188;48.114;-1.388;2022-08-20T07:27:29;5.70;;;3.75;;
61764;SDS011;50188;48.114;-1.388;2022-08-20T07:29:55;5.00;;;3.13;;
61764;SDS011;50188;48.114;-1.388;2022-08-20T07:32:40;10.00;;;4.32;;
61764;SDS011;50188;48.114;-1.388;2022-08-20T07:35:07;9.10;;;4.28;;
61764;SDS011;50188;48.114;-1.388;2022-08-20T07:37:38;12.82;;;4.53;;
61764;SDS011;50188;48.114;-1.388;2022-08-20T07:40:06;8.40;;;3.10;;
61764;SDS011;50188;48.114;-1.388;2022-08-20T07:42:35;12.02;;;5.15;;
61764;SDS011;50188;48.114;-1.388;2022-08-20T07:45:04;14.60;;;3.50;;
61764;SDS011;50188;48.114;-1.388;2022-08-20T07:47:32;13.20;;;4.05;;
61764;SDS011;50188;48.114;-1.388;2022-08-20T07:49:59;10.57;;;3.45;;
61764;SDS011;50188;48.114;-1.388;2022-08-20T07:52:25;8.35;;;3.15;;
61764;SDS011;50188;48.114;-1.388;2022-08-20T07:54:51;9.07;;;3.38;;
61764;SDS011;50188;48.114;-1.388;2022-08-20T07:57:17;10.65;;;4.03;;
61764;SDS011;50188;48.114;-1.388;2022-08-20T07:59:43;8.85;;;3.28;;
61764;SDS011;50188;48.114;-1.388;2022-08-20T08:02:10;19.63;;;4.22;;
61764;SDS011;50188;48.114;-1.388;2022-08-20T08:04:36;10.18;;;3.58;;
61764;SDS011;50188;48.114;-1.388;2022-08-20T08:07:02;15.00;;;3.97;;
61764;SDS011;50188;48.114;-1.388;2022-08-20T08:09:29;10.00;;;3.20;;
61764;SDS011;50188;48.114;-1.388;2022-08-20T08:11:57;19.35;;;4.80;;
61764;SDS011;50188;48.114;-1.388;2022-08-20T08:14:27;5.70;;;2.58;;
61764;SDS011;50188;48.114;-1.388;2022-08-20T08:16:56;9.43;;;3.58;;
61764;SDS011;50188;48.114;-1.388;2022-08-20T08:19:25;7.25;;;3.35;;
61764;SDS011;50188;48.114;-1.388;2022-08-20T08:21:58;11.90;;;3.25;;
61764;SDS011;50188;48.114;-1.388;2022-08-20T08:24:24;11.20;;;4.00;;
61764;SDS011;50188;48.114;-1.388;2022-08-20T08:26:49;8.70;;;3.53;;
61764;SDS011;50188;48.114;-1.388;2022-08-20T08:29:16;10.95;;;4.35;;
61764;SDS011;50188;48.114;-1.388;2022-08-20T08:31:42;10.20;;;3.53;;
61764;SDS011;50188;48.114;-1.388;2022-08-20T08:34:08;13.43;;;3.78;;
61764;SDS011;50188;48.114;-1.388;2022-08-20T08:36:34;15.05;;;3.65;;
61764;SDS011;50188;48.114;-1.388;2022-08-20T08:38:59;13.77;;;3.80;;
61764;SDS011;50188;48.114;-1.388;2022-08-20T08:41:28;12.20;;;4.20;;
61764;SDS011;50188;48.114;-1.388;2022-08-20T08:44:03;11.75;;;3.70;;
61764;SDS011;50188;48.114;-1.388;2022-08-20T08:46:35;12.70;;;4.45;;
61764;SDS011;50188;48.114;-1.388;2022-08-20T08:49:04;11.02;;;3.40;;
61764;SDS011;50188;48.114;-1.388;2022-08-20T08:51:36;6.32;;;3.42;;
61764;SDS011;50188;48.114;-1.388;2022-08-20T08:54:07;11.55;;;3.40;;
61764;SDS011;50188;48.114;-1.388;2022-08-20T08:56:36;14.38;;;3.13;;
61764;SDS011;50188;48.114;-1.388;2022-08-20T08:59:05;7.88;;;3.05;;
61764;SDS011;50188;48.114;-1.388;2022-08-20T09:01:34;16.40;;;4.28;;
61764;SDS011;50188;48.114;-1.388;2022-08-20T09:04:06;12.93;;;4.00;;
61764;SDS011;50188;48.114;-1.388;2022-08-20T09:06:33;13.30;;;3.63;;
61764;SDS011;50188;48.114;-1.388;2022-08-20T09:09:01;8.90;;;3.22;;
61764;SDS011;50188;48.114;-1.388;2022-08-20T09:13:54;10.90;;;3.70;;
61764;SDS011;50188;48.114;-1.388;2022-08-20T09:16:21;12.52;;;3.65;;
61764;SDS011;50188;48.114;-1.388;2022-08-20T09:18:49;6.65;;;3.03;;
61764;SDS011;50188;48.114;-1.388;2022-08-20T09:21:15;8.52;;;2.72;;
61764;SDS011;50188;48.114;-1.388;2022-08-20T09:23:41;8.93;;;3.20;;
61764;SDS011;50188;48.114;-1.388;2022-08-20T09:26:07;7.00;;;1.67;;
61764;SDS011;50188;48.114;-1.388;2022-08-20T09:28:33;7.57;;;2.72;;
61764;SDS011;50188;48.114;-1.388;2022-08-20T09:31:00;10.27;;;3.80;;
61764;SDS011;50188;48.114;-1.388;2022-08-20T09:33:26;11.80;;;2.72;;
61764;SDS011;50188;48.114;-1.388;2022-08-20T09:35:52;8.18;;;2.20;;
61764;SDS011;50188;48.114;-1.388;2022-08-20T09:38:18;12.80;;;3.33;;
61764;SDS011;50188;48.114;-1.388;2022-08-20T09:40:44;7.72;;;3.20;;
61764;SDS011;50188;48.114;-1.388;2022-08-20T09:43:10;16.33;;;3.25;;
61764;SDS011;50188;48.114;-1.388;2022-08-20T09:45:37;10.88;;;3.25;;
61764;SDS011;50188;48.114;-1.388;2022-08-20T09:48:03;10.38;;;4.40;;
61764;SDS011;50188;48.114;-1.388;2022-08-20T09:50:30;11.63;;;4.13;;
61764;SDS011;50188;48.114;-1.388;2022-08-20T09:52:58;7.03;;;3.38;;
61764;SDS011;50188;48.114;-1.388;2022-08-20T09:55:36;7.68;;;2.42;;
61764;SDS011;50188;48.114;-1.388;2022-08-20T10:01:00;8.18;;;3.00;;
61764;SDS011;50188;48.114;-1.388;2022-08-20T10:03:32;15.00;;;2.38;;
61764;SDS011;50188;48.114;-1.388;2022-08-20T10:05:58;11.30;;;2.67;;
61764;SDS011;50188;48.114;-1.388;2022-08-20T10:08:25;7.55;;;2.80;;
61764;SDS011;50188;48.114;-1.388;2022-08-20T10:10:54;5.03;;;2.03;;
61764;SDS011;50188;48.114;-1.388;2022-08-20T10:13:20;6.65;;;2.35;;
61764;SDS011;50188;48.114;-1.388;2022-08-20T10:15:46;6.35;;;2.55;;
61764;SDS011;50188;48.114;-1.388;2022-08-20T10:18:12;8.35;;;2.20;;
61764;SDS011;50188;48.114;-1.388;2022-08-20T10:20:38;6.15;;;2.60;;
61764;SDS011;50188;48.114;-1.388;2022-08-20T10:23:04;7.63;;;3.08;;
61764;SDS011;50188;48.114;-1.388;2022-08-20T10:25:31;9.45;;;2.72;;
61764;SDS011;50188;48.114;-1.388;2022-08-20T10:27:57;9.88;;;2.67;;
61764;SDS011;50188;48.114;-1.388;2022-08-20T10:30:25;7.70;;;3.05;;
61764;SDS011;50188;48.114;-1.388;2022-08-20T10:32:51;3.35;;;2.10;;
61764;SDS011;50188;48.114;-1.388;2022-08-20T10:35:17;7.03;;;2.00;;
61764;SDS011;50188;48.114;-1.388;2022-08-20T10:37:44;9.35;;;2.15;;
61764;SDS011;50188;48.114;-1.388;2022-08-20T10:40:10;5.25;;;2.97;;
61764;SDS011;50188;48.114;-1.388;2022-08-20T10:42:39;11.50;;;2.60;;
61764;SDS011;50188;48.114;-1.388;2022-08-20T10:45:06;7.07;;;2.75;;
61764;SDS011;50188;48.114;-1.388;2022-08-20T10:47:32;8.52;;;2.70;;
61764;SDS011;50188;48.114;-1.388;2022-08-20T10:50:00;6.90;;;2.08;;
61764;SDS011;50188;48.114;-1.388;2022-08-20T10:52:28;10.55;;;3.40;;
61764;SDS011;50188;48.114;-1.388;2022-08-20T10:54:54;8.05;;;2.65;;
61764;SDS011;50188;48.114;-1.388;2022-08-20T10:57:21;9.50;;;2.42;;
61764;SDS011;50188;48.114;-1.388;2022-08-20T10:59:51;5.57;;;2.35;;
61764;SDS011;50188;48.114;-1.388;2022-08-20T11:02:18;9.25;;;2.70;;
61764;SDS011;50188;48.114;-1.388;2022-08-20T11:04:45;6.10;;;2.83;;
61764;SDS011;50188;48.114;-1.388;2022-08-20T11:07:13;10.90;;;2.95;;
61764;SDS011;50188;48.114;-1.388;2022-08-20T11:09:46;8.05;;;3.17;;
61764;SDS011;50188;48.114;-1.388;2022-08-20T11:12:16;10.13;;;2.83;;
61764;SDS011;50188;48.114;-1.388;2022-08-20T11:14:43;9.95;;;2.47;;
61764;SDS011;50188;48.114;-1.388;2022-08-20T11:17:09;7.20;;;2.42;;
61764;SDS011;50188;48.114;-1.388;2022-08-20T11:19:40;8.32;;;3.05;;
61764;SDS011;50188;48.114;-1.388;2022-08-20T11:22:07;5.22;;;2.92;;
61764;SDS011;50188;48.114;-1.388;2022-08-20T11:24:34;12.70;;;3.40;;
61764;SDS011;50188;48.114;-1.388;2022-08-20T11:27:00;5.95;;;2.60;;
61764;SDS011;50188;48.114;-1.388;2022-08-20T11:29:26;5.50;;;1.92;;
61764;SDS011;50188;48.114;-1.388;2022-08-20T11:31:52;7.50;;;3.13;;
61764;SDS011;50188;48.114;-1.388;2022-08-20T11:34:19;6.47;;;2.30;;
61764;SDS011;50188;48.114;-1.388;2022-08-20T11:36:45;6.28;;;2.55;;
61764;SDS011;50188;48.114;-1.388;2022-08-20T11:39:18;7.55;;;1.77;;
61764;SDS011;50188;48.114;-1.388;2022-08-20T11:41:44;10.98;;;2.78;;
61764;SDS011;50188;48.114;-1.388;2022-08-20T11:44:10;7.65;;;2.70;;
61764;SDS011;50188;48.114;-1.388;2022-08-20T11:46:45;7.53;;;2.53;;
61764;SDS011;50188;48.114;-1.388;2022-08-20T11:49:11;8.10;;;1.92;;
61764;SDS011;50188;48.114;-1.388;2022-08-20T11:51:40;7.18;;;2.25;;
61764;SDS011;50188;48.114;-1.388;2022-08-20T11:56:32;5.10;;;2.35;;
61764;SDS011;50188;48.114;-1.388;2022-08-20T11:58:58;7.97;;;2.53;;
61764;SDS011;50188;48.114;-1.388;2022-08-20T12:01:23;10.77;;;2.60;;
61764;SDS011;50188;48.114;-1.388;2022-08-20T12:03:49;7.13;;;2.65;;
61764;SDS011;50188;48.114;-1.388;2022-08-20T12:06:15;6.45;;;2.47;;
61764;SDS011;50188;48.114;-1.388;2022-08-20T12:08:41;5.75;;;2.53;;
61764;SDS011;50188;48.114;-1.388;2022-08-20T12:11:09;9.35;;;2.45;;
61764;SDS011;50188;48.114;-1.388;2022-08-20T12:13:35;5.68;;;2.22;;
61764;SDS011;50188;48.114;-1.388;2022-08-20T12:16:02;9.52;;;3.00;;
61764;SDS011;50188;48.114;-1.388;2022-08-20T12:18:29;5.47;;;2.88;;
61764;SDS011;50188;48.114;-1.388;2022-08-20T12:20:56;8.40;;;2.53;;
61764;SDS011;50188;48.114;-1.388;2022-08-20T12:23:22;12.13;;;2.63;;
61764;SDS011;50188;48.114;-1.388;2022-08-20T12:25:48;13.27;;;2.65;;
61764;SDS011;50188;48.114;-1.388;2022-08-20T12:28:14;6.97;;;1.92;;
61764;SDS011;50188;48.114;-1.388;2022-08-20T12:30:41;5.10;;;2.25;;
61764;SDS011;50188;48.114;-1.388;2022-08-20T12:33:07;5.80;;;1.85;;
61764;SDS011;50188;48.114;-1.388;2022-08-20T12:35:33;6.55;;;3.03;;
61764;SDS011;50188;48.114;-1.388;2022-08-20T12:40:39;6.53;;;2.55;;
61764;SDS011;50188;48.114;-1.388;2022-08-20T12:43:07;5.47;;;2.03;;
61764;SDS011;50188;48.114;-1.388;2022-08-20T12:45:34;6.10;;;2.40;;
61764;SDS011;50188;48.114;-1.388;2022-08-20T12:48:11;12.35;;;3.30;;
61764;SDS011;50188;48.114;-1.388;2022-08-20T12:50:38;6.00;;;2.75;;
61764;SDS011;50188;48.114;-1.388;2022-08-20T12:53:05;7.63;;;2.13;;
61764;SDS011;50188;48.114;-1.388;2022-08-20T12:55:40;7.97;;;2.70;;
61764;SDS011;50188;48.114;-1.388;2022-08-20T12:58:17;4.00;;;1.98;;
61764;SDS011;50188;48.114;-1.388;2022-08-20T13:00:43;4.63;;;2.28;;
61764;SDS011;50188;48.114;-1.388;2022-08-20T13:03:11;13.50;;;2.58;;
61764;SDS011;50188;48.114;-1.388;2022-08-20T13:05:38;6.40;;;2.05;;
61764;SDS011;50188;48.114;-1.388;2022-08-20T13:08:06;3.65;;;2.20;;
61764;SDS011;50188;48.114;-1.388;2022-08-20T13:10:34;6.93;;;2.30;;
61764;SDS011;50188;48.114;-1.388;2022-08-20T13:13:01;25.97;;;2.60;;
61764;SDS011;50188;48.114;-1.388;2022-08-20T13:15:28;7.95;;;2.38;;
61764;SDS011;50188;48.114;-1.388;2022-08-20T13:17:59;6.68;;;2.50;;
61764;SDS011;50188;48.114;-1.388;2022-08-20T13:20:30;7.28;;;2.15;;
61764;SDS011;50188;48.114;-1.388;2022-08-20T13:22:56;4.60;;;2.20;;
61764;SDS011;50188;48.114;-1.388;2022-08-20T13:25:22;7.07;;;2.28;;
61764;SDS011;50188;48.114;-1.388;2022-08-20T13:27:49;2.75;;;1.85;;
61764;SDS011;50188;48.114;-1.388;2022-08-20T13:30:19;4.65;;;1.83;;
61764;SDS011;50188;48.114;-1.388;2022-08-20T13:32:45;7.72;;;2.50;;
61764;SDS011;50188;48.114;-1.388;2022-08-20T13:37:50;6.72;;;1.65;;
61764;SDS011;50188;48.114;-1.388;2022-08-20T13:40:17;7.78;;;2.25;;
61764;SDS011;50188;48.114;-1.388;2022-08-20T13:42:43;5.53;;;2.20;;
61764;SDS011;50188;48.114;-1.388;2022-08-20T13:45:09;4.05;;;1.63;;
61764;SDS011;50188;48.114;-1.388;2022-08-20T13:47:35;10.43;;;1.95;;
61764;SDS011;50188;48.114;-1.388;2022-08-20T13:50:10;4.72;;;1.60;;
61764;SDS011;50188;48.114;-1.388;2022-08-20T13:52:41;8.80;;;2.47;;
61764;SDS011;50188;48.114;-1.388;2022-08-20T13:55:09;5.13;;;2.67;;
61764;SDS011;50188;48.114;-1.388;2022-08-20T13:57:37;6.55;;;2.55;;
61764;SDS011;50188;48.114;-1.388;2022-08-20T14:00:07;5.25;;;2.40;;
61764;SDS011;50188;48.114;-1.388;2022-08-20T14:02:37;2.80;;;1.50;;
61764;SDS011;50188;48.114;-1.388;2022-08-20T14:05:04;5.43;;;2.42;;
61764;SDS011;50188;48.114;-1.388;2022-08-20T14:07:31;7.47;;;2.05;;
61764;SDS011;50188;48.114;-1.388;2022-08-20T14:09:59;4.68;;;1.73;;
61764;SDS011;50188;48.114;-1.388;2022-08-20T14:12:31;8.13;;;2.08;;
61764;SDS011;50188;48.114;-1.388;2022-08-20T14:14:57;3.50;;;2.22;;
61764;SDS011;50188;48.114;-1.388;2022-08-20T14:17:25;8.05;;;1.92;;
61764;SDS011;50188;48.114;-1.388;2022-08-20T14:19:54;4.60;;;2.28;;
61764;SDS011;50188;48.114;-1.388;2022-08-20T14:22:25;5.68;;;2.63;;
61764;SDS011;50188;48.114;-1.388;2022-08-20T14:24:51;4.35;;;2.13;;
61764;SDS011;50188;48.114;-1.388;2022-08-20T14:27:19;5.75;;;2.30;;
61764;SDS011;50188;48.114;-1.388;2022-08-20T14:29:47;8.93;;;1.70;;
61764;SDS011;50188;48.114;-1.388;2022-08-20T14:32:14;6.30;;;1.83;;
61764;SDS011;50188;48.114;-1.388;2022-08-20T14:34:40;3.45;;;1.92;;
61764;SDS011;50188;48.114;-1.388;2022-08-20T14:37:10;4.47;;;2.00;;
61764;SDS011;50188;48.114;-1.388;2022-08-20T14:39:38;8.60;;;2.03;;
61764;SDS011;50188;48.114;-1.388;2022-08-20T14:42:05;6.90;;;2.10;;
61764;SDS011;50188;48.114;-1.388;2022-08-20T14:44:30;6.00;;;1.55;;
61764;SDS011;50188;48.114;-1.388;2022-08-20T14:46:57;6.72;;;2.28;;